Time;durP1;ratioP1;P1;durP2;ratioP2;P2;SDS_P1;SDS_P2;PMS_P1;PMS_P2;Temp;Humidity;BMP_temperature;BMP_pressure;BME280_temperature;BME280_humidity;BME280_pressure;Samples;Min_cycle;Max_cycle;Signal;HPM_P1;HPM_P2
2023/01/24 00:01:18;;;;;;;23.05;18.98;;;;;;;4.36;67.63;103718.81;5074800;28;20035;-75
2023/01/24 00:03:44;;;;;;;19.70;17.83;;;;;;;4.36;67.94;103717.94;5073611;28;20090;-75
2023/01/24 00:06:09;;;;;;;26.52;20.23;;;;;;;4.36;67.67;103720.59;5074606;28;20036;-77
2023/01/24 00:08:35;;;;;;;27.40;22.67;;;;;;;4.37;67.59;103719.66;5056939;28;20024;-77
2023/01/24 00:11:06;;;;;;;18.98;17.05;;;;;;;4.36;67.62;103718.81;5074954;28;20036;-75
2023/01/24 00:13:32;;;;;;;23.80;19.65;;;;;;;4.36;67.42;103718.81;5073496;28;20491;-75
2023/01/24 00:16:28;;;;;;;15.07;13.10;;;;;;;4.36;67.48;103716.13;5073611;28;20032;-76
2023/01/24 00:18:53;;;;;;;18.90;16.95;;;;;;;4.36;67.81;103713.44;5072704;28;20354;-75
2023/01/24 00:21:21;;;;;;;12.65;11.65;;;;;;;4.36;67.58;103709.91;5073518;28;20035;-76
2023/01/24 00:23:50;;;;;;;15.45;14.10;;;;;;;4.35;67.83;103706.38;5074330;28;20048;-77
2023/01/24 00:26:16;;;;;;;22.17;18.13;;;;;;;4.36;67.83;103704.56;5075128;28;20110;-75
2023/01/24 00:28:42;;;;;;;21.58;19.38;;;;;;;4.36;67.68;103710.78;5074937;28;20037;-76
2023/01/24 00:31:07;;;;;;;18.13;14.95;;;;;;;4.36;67.51;103709.91;5073214;28;20063;-74
2023/01/24 00:33:33;;;;;;;28.20;22.75;;;;;;;4.34;67.79;103708.22;5073099;28;20032;-74
2023/01/24 00:35:59;;;;;;;25.30;19.02;;;;;;;4.35;67.60;103698.34;5073248;28;20029;-75
2023/01/24 00:38:25;;;;;;;20.40;17.45;;;;;;;4.36;67.39;103705.44;5074409;28;20030;-74
2023/01/24 00:40:51;;;;;;;19.55;16.85;;;;;;;4.36;66.95;103705.44;5073437;28;20112;-76
2023/01/24 00:43:16;;;;;;;20.13;17.98;;;;;;;4.36;67.16;103696.53;5072974;28;20060;-74
2023/01/24 00:45:44;;;;;;;21.65;18.48;;;;;;;4.36;67.27;103697.41;5073666;28;20024;-74
2023/01/24 00:48:10;;;;;;;23.73;18.85;;;;;;;4.34;67.34;103697.50;5074185;28;20040;-75
2023/01/24 00:50:36;;;;;;;21.67;18.70;;;;;;;4.35;67.24;103695.69;5073758;28;20052;-75
2023/01/24 00:53:01;;;;;;;19.83;16.25;;;;;;;4.36;67.59;103696.53;5073748;28;20040;-77
2023/01/24 00:55:27;;;;;;;17.23;15.60;;;;;;;4.35;67.22;103693.00;5072816;28;20031;-74
2023/01/24 00:57:53;;;;;;;22.75;19.05;;;;;;;4.36;67.46;103696.53;5074104;28;20495;-75
2023/01/24 01:00:18;;;;;;;17.02;15.02;;;;;;;4.36;67.40;103694.72;5072061;28;20486;-75
2023/01/24 01:02:44;;;;;;;20.17;18.23;;;;;;;4.36;67.31;103691.16;5055956;28;20074;-74
2023/01/24 01:05:09;;;;;;;21.80;19.55;;;;;;;4.36;67.60;103696.53;5074461;28;20040;-75
2023/01/24 01:07:35;;;;;;;17.60;15.75;;;;;;;4.36;67.30;103689.38;5072635;28;20033;-74
2023/01/24 01:10:01;;;;;;;16.33;14.75;;;;;;;4.37;67.63;103690.22;5073908;28;20036;-75
2023/01/24 01:12:26;;;;;;;18.73;16.65;;;;;;;4.36;67.25;103681.34;5056591;28;20040;-74
2023/01/24 01:14:52;;;;;;;20.10;15.40;;;;;;;4.36;67.47;103688.50;5073858;28;20028;-74
2023/01/24 01:17:17;;;;;;;18.95;16.90;;;;;;;4.36;67.90;103686.69;5073307;28;20115;-76
2023/01/24 01:19:43;;;;;;;20.88;18.60;;;;;;;4.37;67.75;103684.84;5074227;28;20032;-75
2023/01/24 01:22:08;;;;;;;20.77;16.30;;;;;;;4.37;67.23;103682.19;5072810;28;20028;-75
2023/01/24 01:24:34;;;;;;;15.90;14.52;;;;;;;4.35;67.47;103682.28;5073519;28;20035;-75
2023/01/24 01:26:59;;;;;;;18.17;16.55;;;;;;;4.36;67.16;103683.13;5073664;28;20035;-75
2023/01/24 01:29:25;;;;;;;21.45;17.45;;;;;;;4.36;67.27;103678.66;5073549;28;20082;-75
2023/01/24 01:31:50;;;;;;;21.60;19.45;;;;;;;4.36;67.01;103678.66;5073764;28;20460;-76
2023/01/24 01:34:16;;;;;;;20.15;17.63;;;;;;;4.37;67.03;103683.03;5072119;28;20435;-74
2023/01/24 01:36:41;;;;;;;25.83;18.83;;;;;;;4.36;66.96;103676.00;5072025;28;20078;-74
2023/01/24 01:39:06;;;;;;;25.23;22.17;;;;;;;4.34;67.06;103676.09;5073232;28;20086;-74
2023/01/24 01:41:32;;;;;;;21.35;19.23;;;;;;;4.35;66.83;103668.91;5073393;28;20472;-74
2023/01/24 01:47:01;;;;;;;18.33;16.67;;;;;;;4.33;66.74;103682.44;5072732;28;20071;-75
2023/01/24 01:49:28;;;;;;;15.55;14.32;;;;;;;4.32;67.02;103675.38;5055391;28;20033;-74
2023/01/24 01:51:58;;;;;;;19.05;16.75;;;;;;;4.34;66.44;103680.63;5073595;28;20032;-74
2023/01/24 01:54:31;;;;;;;17.80;15.75;;;;;;;4.32;66.77;103680.72;5074006;28;20035;-76
2023/01/24 01:57:05;;;;;;;19.40;17.48;;;;;;;4.32;66.58;103683.41;5072991;28;20028;-75
2023/01/24 01:59:47;;;;;;;22.30;20.05;;;;;;;4.31;66.40;103673.69;5073765;28;20045;-75
2023/01/24 02:02:13;;;;;;;19.60;17.73;;;;;;;4.32;66.69;103674.53;5072120;28;20021;-75
2023/01/24 02:04:46;;;;;;;16.73;15.07;;;;;;;4.32;66.92;103666.50;5071954;28;20127;-73
2023/01/24 02:07:50;;;;;;;17.20;15.35;;;;;;;4.32;67.24;103662.00;5072771;28;20403;-74
2023/01/24 02:10:19;;;;;;;17.75;15.93;;;;;;;4.33;66.65;103665.50;5051358;28;20047;-74
2023/01/24 02:12:47;;;;;;;20.25;18.13;;;;;;;4.31;66.88;103671.03;5072896;28;20029;-75
2023/01/24 02:18:03;;;;;;;16.50;14.85;;;;;;;4.33;66.97;103673.53;5072923;28;20106;-76
2023/01/24 02:20:38;;;;;;;19.13;16.55;;;;;;;4.32;67.12;103667.34;5073118;28;20074;-74
2023/01/24 02:23:41;;;;;;;20.20;18.00;;;;;;;4.33;66.83;103665.50;5073354;28;20038;-75
2023/01/24 02:26:19;;;;;;;18.63;17.00;;;;;;;4.31;67.04;103662.16;5073062;28;20033;-75
2023/01/24 02:29:11;;;;;;;19.13;16.67;;;;;;;4.30;67.21;103671.97;5075352;28;20087;-74
2023/01/24 02:32:01;;;;;;;21.35;19.05;;;;;;;4.31;66.73;103668.34;5072044;28;20044;-75
2023/01/24 02:34:28;;;;;;;19.35;17.17;;;;;;;4.30;66.74;103658.59;5076531;28;20041;-74
2023/01/24 02:36:57;;;;;;;16.20;14.77;;;;;;;4.30;66.92;103669.31;5075084;28;20031;-75
2023/01/24 02:39:32;;;;;;;17.17;14.48;;;;;;;4.30;66.78;103673.81;5077291;28;20028;-74
2023/01/24 02:42:05;;;;;;;18.63;16.30;;;;;;;4.30;66.99;103671.97;5077137;28;20028;-74
2023/01/24 02:44:37;;;;;;;16.48;15.07;;;;;;;4.30;67.02;103669.31;5075602;28;20030;-74
2023/01/24 02:47:03;;;;;;;17.20;15.00;;;;;;;4.30;67.28;103673.81;5076552;28;20082;-74
2023/01/24 02:49:28;;;;;;;17.42;15.75;;;;;;;4.30;67.24;103676.47;5075853;28;20116;-74
2023/01/24 02:54:39;;;;;;;15.02;13.80;;;;;;;4.31;66.69;103672.84;5075400;28;20495;-72
2023/01/24 02:59:48;;;;;;;19.25;16.92;;;;;;;4.31;67.09;103675.53;5076562;28;20071;-72
2023/01/24 03:02:14;;;;;;;14.80;13.63;;;;;;;4.31;67.27;103672.84;5076588;28;20380;-73
2023/01/24 03:04:39;;;;;;;14.90;13.48;;;;;;;4.30;67.28;103671.97;5076553;28;20032;-73
2023/01/24 03:07:05;;;;;;;20.33;17.70;;;;;;;4.31;67.26;103671.03;5076203;28;20028;-73
2023/01/24 03:09:38;;;;;;;20.40;16.00;;;;;;;4.32;66.83;103674.53;5076385;28;20032;-73
2023/01/24 03:36:43;;;;;;;18.08;15.70;;;;;;;4.29;67.28;103653.38;5075524;28;20075;-73
2023/01/24 03:41:56;;;;;;;18.05;16.23;;;;;;;4.30;67.29;103657.75;5075819;28;20071;-73
2023/01/24 03:44:21;;;;;;;19.08;17.15;;;;;;;4.30;67.14;103660.44;5075534;28;20032;-73
2023/01/24 03:46:47;;;;;;;21.27;17.73;;;;;;;4.30;67.39;103660.44;5075947;28;20433;-73
2023/01/24 03:49:12;;;;;;;18.38;16.65;;;;;;;4.30;67.31;103660.44;5075292;28;20032;-73
2023/01/24 03:54:22;;;;;;;19.08;17.23;;;;;;;4.30;67.58;103647.06;5075577;28;20043;-74
2023/01/24 03:56:47;;;;;;;22.52;19.92;;;;;;;4.30;67.58;103658.59;5073675;28;20100;-73
2023/01/24 03:59:12;;;;;;;16.27;15.00;;;;;;;4.30;67.71;103658.59;5075035;28;20529;-73
2023/01/24 04:01:38;;;;;;;20.65;18.45;;;;;;;4.30;67.45;103661.28;5073962;28;20036;-73
2023/01/24 04:04:03;;;;;;;20.52;17.92;;;;;;;4.30;67.24;103657.75;5075305;28;20547;-73
2023/01/24 04:06:29;;;;;;;18.10;16.27;;;;;;;4.31;67.55;103659.47;5075319;28;20028;-74
2023/01/24 04:08:54;;;;;;;19.42;17.42;;;;;;;4.31;67.33;103664.81;5074813;28;20037;-74
2023/01/24 04:11:19;;;;;;;16.40;14.73;;;;;;;4.29;67.67;103651.56;5074609;28;20038;-73
2023/01/24 04:13:45;;;;;;;18.98;17.17;;;;;;;4.30;67.27;103655.06;5074847;28;20033;-73
2023/01/24 04:16:10;;;;;;;16.73;15.13;;;;;;;4.30;67.55;103655.91;5074951;28;20384;-73
2023/01/24 04:18:36;;;;;;;19.65;17.58;;;;;;;4.31;67.79;103656.78;5075054;28;20032;-73
2023/01/24 04:21:05;;;;;;;22.10;19.50;;;;;;;4.30;67.57;103655.91;5074823;28;20090;-73
2023/01/24 04:23:31;;;;;;;16.80;15.15;;;;;;;4.30;67.25;103661.28;5074696;28;20032;-73
2023/01/24 04:25:59;;;;;;;17.10;15.43;;;;;;;4.31;67.62;103663.00;5075207;28;20028;-73
2023/01/24 04:28:25;;;;;;;24.40;18.87;;;;;;;4.30;67.38;103658.59;5073483;28;20029;-73
2023/01/24 04:31:00;;;;;;;20.10;17.98;;;;;;;4.30;67.49;103658.59;5074118;28;20305;-73
2023/01/24 04:33:26;;;;;;;18.67;16.65;;;;;;;4.29;67.28;103656.91;5074517;28;20480;-73
2023/01/24 04:35:56;;;;;;;25.02;18.92;;;;;;;4.30;67.75;103663.09;5074496;28;20025;-73
2023/01/24 04:38:21;;;;;;;18.77;16.42;;;;;;;4.28;67.74;103663.25;5074413;28;20035;-73
2023/01/24 04:40:46;;;;;;;20.15;18.02;;;;;;;4.29;67.72;103661.41;5074674;28;20033;-75
2023/01/24 04:43:12;;;;;;;21.80;18.83;;;;;;;4.30;67.75;103660.44;5073969;28;20033;-74
2023/01/24 04:45:37;;;;;;;14.90;13.77;;;;;;;4.30;67.81;103666.63;5074765;28;20442;-74
2023/01/24 04:48:02;;;;;;;22.00;19.60;;;;;;;4.30;67.87;103666.63;5073385;28;20020;-74
2023/01/24 04:50:28;;;;;;;29.35;22.75;;;;;;;4.30;67.48;103665.78;5072696;28;20033;-74
2023/01/24 04:52:53;;;;;;;28.65;20.17;;;;;;;4.29;67.46;103672.97;5074071;28;20369;-73
2023/01/24 04:55:19;;;;;;;23.30;20.33;;;;;;;4.29;67.20;103667.63;5072882;28;20029;-74
2023/01/24 04:57:44;;;;;;;16.73;15.27;;;;;;;4.29;67.28;103664.09;5074298;28;20028;-74
2023/01/24 05:00:10;;;;;;;21.65;19.27;;;;;;;4.29;67.35;103667.63;5053802;28;20071;-74
2023/01/24 05:02:37;;;;;;;20.05;17.65;;;;;;;4.30;66.89;103668.47;5073749;28;20054;-74
2023/01/24 05:05:03;;;;;;;24.52;18.98;;;;;;;4.27;66.70;103666.88;5072571;28;20452;-74
2023/01/24 05:07:29;;;;;;;22.90;19.52;;;;;;;4.27;66.73;103666.03;5074082;28;20037;-73
2023/01/24 05:09:54;;;;;;;20.10;17.85;;;;;;;4.27;66.71;103669.56;5073839;28;20380;-74
2023/01/24 05:12:20;;;;;;;16.95;15.13;;;;;;;4.26;66.94;103672.38;5072654;28;20036;-74
2023/01/24 05:14:45;;;;;;;27.80;22.02;;;;;;;4.26;67.00;103672.38;5073837;28;20436;-73
2023/01/24 05:17:10;;;;;;;21.70;18.42;;;;;;;4.25;66.79;103670.66;5072479;28;20033;-73
2023/01/24 05:19:36;;;;;;;22.13;17.58;;;;;;;4.24;66.96;103675.19;5073750;28;20115;-74
2023/01/24 05:22:01;;;;;;;20.95;18.50;;;;;;;4.25;67.06;103676.88;5073683;28;20032;-73
2023/01/24 05:24:26;;;;;;;24.67;17.67;;;;;;;4.25;67.42;103665.31;5072510;28;20111;-74
2023/01/24 05:26:52;;;;;;;24.90;20.17;;;;;;;4.25;67.00;103668.00;5073688;28;20480;-74
2023/01/24 05:29:17;;;;;;;17.85;16.35;;;;;;;4.26;67.44;103675.91;5073381;28;20036;-73
2023/01/24 05:31:42;;;;;;;18.83;16.80;;;;;;;4.26;67.32;103675.06;5073607;28;20437;-74
2023/01/24 05:34:08;;;;;;;19.23;17.40;;;;;;;4.25;67.28;103670.66;5072572;28;20056;-73
2023/01/24 05:36:33;;;;;;;16.75;15.15;;;;;;;4.25;67.43;103676.03;5072271;28;20379;-74
2023/01/24 05:38:58;;;;;;;23.75;18.67;;;;;;;4.25;67.01;103674.19;5073190;28;20039;-73
2023/01/24 05:41:24;;;;;;;18.00;16.33;;;;;;;4.26;67.40;103680.41;5073516;28;20111;-74
2023/01/24 05:43:49;;;;;;;17.42;15.73;;;;;;;4.25;67.18;103676.03;5073170;28;20381;-73
2023/01/24 05:46:18;;;;;;;17.75;15.90;;;;;;;4.25;67.25;103684.91;5073671;28;20036;-73
2023/01/24 05:48:45;;;;;;;15.30;13.88;;;;;;;4.26;67.06;103688.44;5073637;28;20036;-74
2023/01/24 05:51:13;;;;;;;25.13;20.27;;;;;;;4.25;67.49;103692.91;5073529;28;20029;-74
2023/01/24 05:53:39;;;;;;;19.92;17.83;;;;;;;4.25;67.27;103698.28;5073348;28;20033;-74
2023/01/24 05:56:08;;;;;;;25.67;21.02;;;;;;;4.25;66.93;103698.28;5071944;28;20376;-74
2023/01/24 05:58:35;;;;;;;;;;;;;;;4.26;66.64;103699.16;5073642;28;20029;-74
2023/01/24 06:01:06;;;;;;;16.38;14.75;;;;;;;4.23;66.56;103702.91;5073149;28;19970;-75
2023/01/24 06:03:31;;;;;;;16.58;14.98;;;;;;;4.22;66.32;103706.56;5076108;28;20024;-75
2023/01/24 06:05:56;;;;;;;17.98;16.33;;;;;;;4.21;66.50;103709.34;5077536;28;20537;-74
2023/01/24 06:08:22;;;;;;;21.15;18.98;;;;;;;4.20;66.74;103713.00;5077311;28;20423;-75
2023/01/24 06:10:48;;;;;;;16.42;14.88;;;;;;;4.20;66.90;103710.34;5077604;28;20024;-75
2023/01/24 06:13:13;;;;;;;24.33;19.70;;;;;;;4.19;66.78;103712.19;5077084;28;20037;-75
2023/01/24 06:15:40;;;;;;;16.92;15.27;;;;;;;4.19;66.62;103716.69;5076697;28;20476;-75
2023/01/24 06:18:07;;;;;;;16.83;15.18;;;;;;;4.20;66.96;103715.69;5076939;28;20032;-73
2023/01/24 06:20:33;;;;;;;18.67;16.83;;;;;;;4.19;66.66;103719.34;5077622;28;20035;-73
2023/01/24 06:23:06;;;;;;;16.15;14.75;;;;;;;4.18;66.79;103715.81;5076421;28;20127;-74
2023/01/24 06:25:32;;;;;;;19.48;16.63;;;;;;;4.19;66.91;103714.00;5077497;28;20040;-74
2023/01/24 06:27:58;;;;;;;17.20;15.45;;;;;;;4.19;67.16;103717.53;5076411;28;20033;-74
2023/01/24 06:30:24;;;;;;;21.73;18.45;;;;;;;4.19;67.35;103722.88;5075475;28;20491;-74
2023/01/24 06:33:10;;;;;;;15.48;13.80;;;;;;;4.20;67.41;103718.38;5076808;28;20024;-74
2023/01/24 06:36:00;;;;;;;14.48;13.10;;;;;;;4.19;67.02;103716.69;5075597;28;20025;-74
2023/01/24 06:38:26;;;;;;;19.85;17.85;;;;;;;4.19;67.33;103722.03;5076065;28;20068;-74
2023/01/24 06:40:55;;;;;;;14.18;13.10;;;;;;;4.18;67.29;103729.19;5075305;28;20491;-74
2023/01/24 06:43:21;;;;;;;17.27;15.63;;;;;;;4.19;67.33;103720.19;5076977;28;20052;-74
2023/01/24 06:45:47;;;;;;;20.20;18.13;;;;;;;4.19;67.33;103736.25;5075119;28;20032;-74
2023/01/24 06:48:12;;;;;;;22.70;19.50;;;;;;;4.20;67.04;103727.25;5075509;28;20029;-74
2023/01/24 06:50:38;;;;;;;16.55;15.15;;;;;;;4.20;67.03;103737.94;5075477;28;20032;-75
2023/01/24 06:53:03;;;;;;;17.55;16.00;;;;;;;4.19;67.32;103730.91;5075053;28;20357;-74
2023/01/24 06:55:29;;;;;;;15.68;14.13;;;;;;;4.19;67.18;103730.91;5076146;28;20037;-75
2023/01/24 06:57:59;;;;;;;20.45;17.58;;;;;;;4.19;67.16;103733.56;5076320;28;20039;-72
2023/01/24 07:00:28;;;;;;;26.73;17.85;;;;;;;4.19;67.59;103732.72;5075990;28;20075;-74
2023/01/24 07:03:02;;;;;;;21.25;17.08;;;;;;;4.20;67.49;103739.78;5076787;28;20021;-73
2023/01/24 07:05:30;;;;;;;15.32;14.05;;;;;;;4.20;67.45;103740.63;5076114;28;20032;-74
2023/01/24 07:07:56;;;;;;;21.35;17.85;;;;;;;4.19;67.52;103730.06;5076084;28;20473;-73
2023/01/24 07:10:21;;;;;;;19.17;16.33;;;;;;;4.19;67.46;103733.56;5075914;28;20108;-73
2023/01/24 07:12:47;;;;;;;27.95;18.98;;;;;;;4.19;67.31;103736.25;5075948;28;20158;-74
2023/01/24 07:15:13;;;;;;;22.58;19.23;;;;;;;4.19;67.41;103733.56;5075323;28;20035;-73
2023/01/24 07:17:38;;;;;;;22.45;19.45;;;;;;;4.20;67.50;103750.47;5075820;28;20396;-75
2023/01/24 07:20:04;;;;;;;23.20;18.50;;;;;;;4.20;67.51;103753.16;5075808;28;20035;-72
2023/01/24 07:22:30;;;;;;;18.17;16.63;;;;;;;4.20;67.41;103756.66;5075354;28;20033;-73
2023/01/24 07:24:56;;;;;;;17.48;15.63;;;;;;;4.20;67.42;103756.66;5075977;28;20411;-72
2023/01/24 07:27:22;;;;;;;15.18;13.85;;;;;;;4.20;67.56;103755.81;5076174;28;20067;-74
2023/01/24 07:29:47;;;;;;;21.60;19.23;;;;;;;4.20;67.07;103758.50;5074357;28;20052;-74
2023/01/24 07:32:13;;;;;;;19.30;17.27;;;;;;;4.21;66.81;103760.19;5074555;28;20032;-74
2023/01/24 07:34:38;;;;;;;27.75;21.17;;;;;;;4.19;67.27;103767.53;5075524;28;20540;-72
2023/01/24 07:37:06;;;;;;;25.27;21.15;;;;;;;4.18;67.17;103766.66;5075824;28;20028;-71
2023/01/24 07:39:32;;;;;;;22.35;18.05;;;;;;;4.18;66.96;103769.31;5075325;28;20476;-71
2023/01/24 07:41:57;;;;;;;16.58;15.13;;;;;;;4.18;67.11;103768.47;5074180;28;20529;-72
2023/01/24 07:44:22;;;;;;;21.65;17.08;;;;;;;4.16;67.18;103771.28;5073819;28;20447;-74
2023/01/24 07:46:48;;;;;;;17.33;15.63;;;;;;;4.17;67.30;103782.84;5075407;28;20202;-74
2023/01/24 07:49:13;;;;;;;24.63;21.15;;;;;;;4.16;67.09;103782.00;5075301;28;20373;-73
2023/01/24 07:51:39;;;;;;;15.73;14.13;;;;;;;4.17;67.51;103785.50;5075285;28;20033;-73
2023/01/24 07:54:05;;;;;;;18.30;16.67;;;;;;;4.16;67.36;103784.66;5075759;28;20039;-74
2023/01/24 07:56:31;;;;;;;18.88;17.20;;;;;;;4.17;67.22;103780.16;5074692;28;20072;-73
2023/01/24 07:58:56;;;;;;;20.52;18.33;;;;;;;4.17;67.44;103781.00;5074955;28;20123;-73
2023/01/24 08:01:23;;;;;;;21.02;18.23;;;;;;;4.17;67.25;103782.84;5074440;28;20052;-72
2023/01/24 08:03:49;;;;;;;13.35;12.50;;;;;;;4.16;67.56;103783.78;5074980;28;20431;-73
2023/01/24 08:06:15;;;;;;;29.25;22.33;;;;;;;4.16;67.63;103782.00;5074887;28;20115;-73
2023/01/24 08:08:40;;;;;;;17.63;16.15;;;;;;;4.15;67.83;103788.31;5073461;28;20040;-71
2023/01/24 08:11:06;;;;;;;23.15;18.90;;;;;;;4.15;67.66;103788.31;5073326;28;20461;-72
2023/01/24 08:13:31;;;;;;;27.67;22.63;;;;;;;4.15;67.33;103793.66;5074557;28;20035;-73
2023/01/24 08:15:59;;;;;;;14.35;13.40;;;;;;;4.16;67.12;103783.78;5074673;28;20032;-73
2023/01/24 08:18:24;;;;;;;20.88;18.48;;;;;;;4.15;67.60;103782.09;5074646;28;20047;-74
2023/01/24 08:20:54;;;;;;;18.88;15.82;;;;;;;4.15;66.99;103790.97;5074528;28;20387;-73
2023/01/24 08:23:19;;;;;;;28.02;21.92;;;;;;;4.14;67.40;103785.78;5073910;28;20101;-73
2023/01/24 08:25:45;;;;;;;28.63;21.48;;;;;;;4.13;67.41;103787.56;5073323;28;20119;-73
2023/01/24 08:28:10;;;;;;;23.60;20.23;;;;;;;4.12;67.08;103788.56;5074180;28;20387;-73
2023/01/24 08:30:36;;;;;;;18.88;16.95;;;;;;;4.12;67.01;103796.59;5074227;28;20035;-73
2023/01/24 08:33:03;;;;;;;21.48;19.25;;;;;;;4.10;67.08;103793.19;5074967;28;20039;-73
2023/01/24 08:35:29;;;;;;;25.13;21.40;;;;;;;4.09;67.51;103794.16;5073993;28;20571;-74
2023/01/24 08:37:55;;;;;;;20.83;18.67;;;;;;;4.10;67.18;103810.06;5074389;28;20079;-74
2023/01/24 08:40:20;;;;;;;15.90;14.73;;;;;;;4.10;67.39;103802.03;5073731;28;20492;-73
2023/01/24 08:42:46;;;;;;;21.70;19.45;;;;;;;4.10;67.46;103807.41;5072919;28;20059;-74
2023/01/24 08:45:11;;;;;;;20.08;16.65;;;;;;;4.10;67.67;103804.72;5073976;28;20431;-73
2023/01/24 08:47:36;;;;;;;31.15;25.85;;;;;;;4.11;67.27;103817.16;5073782;28;20051;-74
2023/01/24 08:50:02;;;;;;;19.23;17.33;;;;;;;4.12;66.92;103818.00;5074103;28;20029;-73
2023/01/24 08:52:27;;;;;;;15.77;14.45;;;;;;;4.11;66.92;103816.31;5072937;28;20416;-73
2023/01/24 08:54:53;;;;;;;19.35;17.33;;;;;;;4.11;67.23;103818.97;5073860;28;20111;-74
2023/01/24 08:57:18;;;;;;;18.73;16.80;;;;;;;4.09;67.36;103823.59;5073445;28;20039;-73
2023/01/24 08:59:44;;;;;;;14.73;13.60;;;;;;;4.09;67.42;103823.59;5073564;28;20052;-73
2023/01/24 09:02:13;;;;;;;16.92;15.27;;;;;;;4.09;67.07;103828.94;5055764;28;20456;-75
2023/01/24 09:04:39;;;;;;;13.50;12.38;;;;;;;4.08;67.58;103819.19;5073572;28;20050;-74
2023/01/24 09:07:04;;;;;;;31.15;21.60;;;;;;;4.08;67.31;103825.44;5073894;28;20461;-75
2023/01/24 09:09:30;;;;;;;14.52;13.40;;;;;;;4.09;66.94;103827.13;5073190;28;20082;-74
2023/01/24 09:11:55;;;;;;;13.88;12.82;;;;;;;4.08;67.16;103821.88;5073560;28;20120;-74
2023/01/24 09:14:21;;;;;;;24.95;20.23;;;;;;;4.08;67.13;103827.22;5073043;28;20099;-74
2023/01/24 09:16:46;;;;;;;24.00;19.73;;;;;;;4.07;67.23;103830.88;5073412;28;20064;-79
2023/01/24 09:19:12;;;;;;;21.63;19.50;;;;;;;4.06;67.42;103824.69;5073435;28;20029;-74
2023/01/24 09:21:37;;;;;;;13.32;12.35;;;;;;;4.06;67.27;103829.19;5073097;28;20461;-72
2023/01/24 09:24:03;;;;;;;17.48;15.43;;;;;;;4.05;67.69;103828.31;5073661;28;20029;-72
2023/01/24 09:26:28;;;;;;;17.88;16.50;;;;;;;4.06;67.79;103829.19;5073220;28;20037;-74
2023/01/24 09:28:55;;;;;;;18.30;15.18;;;;;;;4.05;67.38;103822.97;5073275;28;20032;-74
2023/01/24 09:31:20;;;;;;;18.55;16.63;;;;;;;4.05;67.75;103830.16;5071876;28;20108;-74
2023/01/24 09:33:46;;;;;;;19.55;17.58;;;;;;;4.06;67.53;103826.53;5073691;28;20120;-74
2023/01/24 09:36:11;;;;;;;14.32;12.88;;;;;;;4.05;67.54;103825.66;5072995;28;20123;-74
2023/01/24 09:38:36;;;;;;;18.77;16.77;;;;;;;4.06;67.65;103824.69;5072679;28;20028;-74
2023/01/24 09:41:14;;;;;;;17.75;15.93;;;;;;;4.06;67.31;103831.88;5073043;28;20063;-74
2023/01/24 09:43:42;;;;;;;23.38;20.30;;;;;;;4.06;67.39;103829.19;5073255;28;20115;-75
2023/01/24 09:46:28;;;;;;;18.17;16.27;;;;;;;4.06;67.31;103832.72;5073060;28;20029;-73
2023/01/24 09:49:29;;;;;;;23.52;19.60;;;;;;;4.06;67.21;103831.88;5073330;28;20032;-74
2023/01/24 09:51:55;;;;;;;20.33;16.50;;;;;;;4.05;67.42;103835.50;5068677;28;20033;-74
2023/01/24 09:54:36;;;;;;;23.45;19.30;;;;;;;4.03;67.00;103842.78;5072774;28;20495;-73
2023/01/24 09:57:13;;;;;;;15.20;13.82;;;;;;;4.03;67.36;103843.66;5073342;28;20044;-72
2023/01/24 09:59:43;;;;;;;18.85;17.00;;;;;;;4.02;67.44;103855.31;5072685;28;20056;-76
2023/01/24 10:02:18;;;;;;;20.92;18.85;;;;;;;4.04;66.93;103847.19;5072952;28;20078;-74
2023/01/24 10:04:45;;;;;;;19.67;17.23;;;;;;;4.02;66.82;103847.31;5072911;28;20108;-73
2023/01/24 10:07:31;;;;;;;25.17;19.70;;;;;;;4.04;66.99;103847.19;5073043;28;20119;-74
2023/01/24 10:10:11;;;;;;;18.02;16.33;;;;;;;4.03;67.00;103848.16;5065265;28;20044;-73
2023/01/24 10:12:42;;;;;;;23.08;18.35;;;;;;;4.02;67.31;103852.66;5072129;28;20086;-73
2023/01/24 10:15:29;;;;;;;15.80;14.30;;;;;;;4.03;67.32;103849.03;5073463;28;20020;-74
2023/01/24 10:18:01;;;;;;;18.25;16.48;;;;;;;4.05;67.21;103854.22;5072716;28;20082;-73
2023/01/24 10:20:48;;;;;;;24.20;17.90;;;;;;;4.05;67.31;103854.22;5073480;28;20025;-74
2023/01/24 10:23:17;;;;;;;17.92;16.17;;;;;;;4.05;67.56;103857.75;5073559;28;20036;-74
2023/01/24 10:25:45;;;;;;;16.23;14.88;;;;;;;4.06;67.51;103858.63;5072817;28;20025;-75
2023/01/24 10:28:20;;;;;;;20.08;18.00;;;;;;;4.05;67.33;103848.88;5071481;28;20040;-75
2023/01/24 10:31:05;;;;;;;20.90;17.27;;;;;;;4.06;67.16;103853.28;5073134;28;20028;-76
2023/01/24 10:33:43;;;;;;;23.60;18.45;;;;;;;4.06;67.05;103851.44;5072720;28;20025;-74
2023/01/24 10:36:21;;;;;;;15.82;14.48;;;;;;;4.05;67.44;103849.72;5073092;28;20063;-75
2023/01/24 10:38:46;;;;;;;25.63;20.00;;;;;;;4.07;67.60;103850.47;5072588;28;20028;-75
2023/01/24 10:41:21;;;;;;;14.60;13.48;;;;;;;4.06;67.42;103851.44;5073092;28;20458;-74
2023/01/24 10:43:54;;;;;;;17.45;15.50;;;;;;;4.06;67.56;103847.94;5072977;28;20516;-73
2023/01/24 10:46:28;;;;;;;21.13;17.65;;;;;;;4.07;67.13;103846.94;5072754;28;20029;-74
2023/01/24 10:48:56;;;;;;;13.68;12.60;;;;;;;4.07;67.55;103836.25;5073359;28;20033;-74
2023/01/24 10:51:24;;;;;;;26.80;19.87;;;;;;;4.06;67.85;103848.78;5076385;28;20059;-74
2023/01/24 10:53:50;;;;;;;18.85;17.05;;;;;;;4.08;67.94;103845.94;5076204;28;20368;-74
2023/01/24 10:56:19;;;;;;;14.38;13.15;;;;;;;4.08;67.44;103854.84;5076269;28;20134;-74
2023/01/24 10:59:00;;;;;;;17.35;15.63;;;;;;;4.07;67.64;103846.94;5076186;28;20088;-73
2023/01/24 11:01:39;;;;;;;11.38;10.73;;;;;;;4.08;67.57;103843.28;5075652;28;20154;-74
2023/01/24 11:04:29;;;;;;;20.95;18.13;;;;;;;4.07;67.79;103839.75;5076296;28;20028;-75
2023/01/24 11:06:55;;;;;;;15.88;14.27;;;;;;;4.07;67.85;103841.59;5070587;28;20531;-75
2023/01/24 11:09:26;;;;;;;19.98;17.70;;;;;;;4.08;67.89;103837.91;5076195;28;20060;-75
2023/01/24 11:11:57;;;;;;;12.63;11.80;;;;;;;4.08;67.54;103838.81;5075877;28;20407;-73
2023/01/24 11:14:36;;;;;;;20.50;17.52;;;;;;;4.08;67.85;103840.59;5075635;28;20491;-74
2023/01/24 11:17:22;;;;;;;22.15;18.33;;;;;;;4.09;67.23;103837.81;5076180;28;20074;-74
2023/01/24 11:19:57;;;;;;;24.65;19.73;;;;;;;4.08;67.49;103835.25;5075727;28;20102;-74
2023/01/24 11:22:25;;;;;;;17.75;15.93;;;;;;;4.08;66.94;103822.75;5075606;28;20055;-73
2023/01/24 11:24:56;;;;;;;20.00;18.00;;;;;;;4.07;67.26;103820.19;5075630;28;20032;-73
2023/01/24 11:27:22;;;;;;;26.27;19.48;;;;;;;4.07;67.15;103812.16;5075561;28;20024;-74
2023/01/24 11:30:21;;;;;;;22.02;18.17;;;;;;;4.07;67.15;103814.84;5074783;28;20033;-73
2023/01/24 11:32:55;;;;;;;22.92;17.98;;;;;;;4.06;67.14;103821.16;5075340;28;20039;-73
2023/01/24 11:35:24;;;;;;;20.90;17.77;;;;;;;4.05;67.06;103809.59;5075417;28;20040;-74
2023/01/24 11:38:11;;;;;;;20.10;18.05;;;;;;;4.05;66.96;103814.09;5075148;28;20044;-74
2023/01/24 11:40:51;;;;;;;26.10;21.88;;;;;;;4.05;67.38;103811.44;5075461;28;20037;-74
2023/01/24 11:43:28;;;;;;;18.20;16.50;;;;;;;4.04;67.47;103801.72;5075406;28;20035;-75
2023/01/24 11:46:17;;;;;;;21.13;18.10;;;;;;;4.03;67.65;103794.66;5074259;28;20075;-74
2023/01/24 11:49:04;;;;;;;25.02;20.30;;;;;;;4.05;67.65;103800.72;5055308;28;20040;-75
2023/01/24 11:52:02;;;;;;;18.63;16.65;;;;;;;4.05;67.30;103796.22;5074756;28;20542;-74
2023/01/24 11:54:58;;;;;;;14.90;13.60;;;;;;;4.04;67.46;103791.84;5075707;28;20409;-74
2023/01/24 11:57:38;;;;;;;12.80;11.82;;;;;;;4.05;67.80;103784.69;5075600;28;20016;-74
2023/01/24 12:00:31;;;;;;;16.80;15.20;;;;;;;4.05;68.25;103792.72;5074981;28;20129;-72
2023/01/24 12:03:30;;;;;;;18.38;16.48;;;;;;;4.05;68.17;103788.19;5074946;28;20024;-76
2023/01/24 12:06:33;;;;;;;14.68;13.50;;;;;;;4.05;68.24;103782.84;5075247;28;20040;-75
2023/01/24 12:09:14;;;;;;;16.33;14.68;;;;;;;4.05;67.89;103785.53;5075241;28;20025;-75